This is the latest recevied weather packets stored in our database for station/object HS6TUX-4. If no packets are shown the sender has not sent any weather packets the latest 10 day(s).
| Time | Temp. | Humidity | Pressure | Rain* | Wind** | Luminosity | Snow |
|---|---|---|---|---|---|---|---|
| 1777734600 | 30° C | 99% | 727 hPa | - | - | 0 W/m² | - |
| 1777733672 | 30.56° C | 99% | 728 hPa | - | - | 0 W/m² | - |
| 1777732744 | 31.11° C | 99% | 729 hPa | - | - | 0 W/m² | - |
| 1777731816 | 31.67° C | 99% | 729 hPa | - | - | 0 W/m² | - |
| 1777730887 | 31.67° C | 99% | 729 hPa | - | - | 0 W/m² | - |
| 1777729959 | 31.67° C | 99% | 729 hPa | - | - | 0 W/m² | - |
| 1777729031 | 32.22° C | 99% | 730 hPa | - | - | 0 W/m² | - |
| 1777728102 | 32.78° C | 99% | 730 hPa | - | - | 0 W/m² | - |
| 1777727174 | 32.78° C | 99% | 730 hPa | - | - | 0 W/m² | - |
| 1777726246 | 32.78° C | 99% | 730 hPa | - | - | 0 W/m² | - |
| 1777725318 | 33.33° C | 99% | 731 hPa | - | - | 0 W/m² | - |
| 1777724390 | 33.89° C | 99% | 731 hPa | - | - | 0 W/m² | - |
| 1777723461 | 33.89° C | 99% | 732 hPa | - | - | 0 W/m² | - |
| 1777722533 | 34.44° C | 99% | 732 hPa | - | - | 0 W/m² | - |
| 1777721605 | 35° C | 99% | 733 hPa | - | - | 0 W/m² | - |
| 1777720676 | 35° C | 99% | 733 hPa | - | - | 2 W/m² | - |
| 1777719748 | 35.56° C | 97% | 734 hPa | - | - | 5 W/m² | - |
| 1777718820 | 36.11° C | 93% | 734 hPa | - | - | 7 W/m² | - |
| 1777717891 | 36.67° C | 88% | 735 hPa | - | - | 9 W/m² | - |
| 1777716963 | 37.78° C | 81% | 736 hPa | - | - | 11 W/m² | - |
| 1777716035 | 37.78° C | 81% | 736 hPa | - | - | 13 W/m² | - |
| 1777715107 | 37.78° C | 80% | 736 hPa | - | - | 14 W/m² | - |
| 1777714179 | 38.89° C | 73% | 737 hPa | - | - | 15 W/m² | - |
| 1777713251 | 39.44° C | 67% | 738 hPa | - | - | 19 W/m² | - |
| 1777712323 | 39.44° C | 68% | 738 hPa | - | - | 21 W/m² | - |
* Rain since midnight (hover to see other rain measurements)
** Current wind speed in m/s (hover to see current wind gust speed)